sensor_id;sensor_type;location;lat;lon;timestamp;pressure;altitude;pressure_sealevel;temperature;humidity
17936;BME280;9093;52.062;4.508;2023-01-29T00:01:37;103349.91;;;5.53;70.68
17936;BME280;9093;52.062;4.508;2023-01-29T00:04:17;103343.72;;;5.53;70.95
17936;BME280;9093;52.062;4.508;2023-01-29T00:06:58;103344.59;;;5.52;70.86
17936;BME280;9093;52.062;4.508;2023-01-29T00:09:38;103343.69;;;5.51;70.76
17936;BME280;9093;52.062;4.508;2023-01-29T00:12:19;103338.41;;;5.51;70.93
17936;BME280;9093;52.062;4.508;2023-01-29T00:14:59;103335.78;;;5.53;70.81
17936;BME280;9093;52.062;4.508;2023-01-29T00:17:39;103336.66;;;5.53;70.93
17936;BME280;9093;52.062;4.508;2023-01-29T00:20:20;103340.19;;;5.52;70.72
17936;BME280;9093;52.062;4.508;2023-01-29T00:23:00;103336.63;;;5.50;70.91
17936;BME280;9093;52.062;4.508;2023-01-29T00:25:41;103337.53;;;5.49;71.02
17936;BME280;9093;52.062;4.508;2023-01-29T00:28:21;103345.47;;;5.49;71.06
17936;BME280;9093;52.062;4.508;2023-01-29T00:31:10;103340.19;;;5.49;70.78
17936;BME280;9093;52.062;4.508;2023-01-29T00:33:51;103338.41;;;5.50;70.81
17936;BME280;9093;52.062;4.508;2023-01-29T00:36:31;103329.56;;;5.49;70.85
17936;BME280;9093;52.062;4.508;2023-01-29T00:39:11;103326.03;;;5.50;70.97
17936;BME280;9093;52.062;4.508;2023-01-29T00:41:52;103323.38;;;5.50;71.01
17936;BME280;9093;52.062;4.508;2023-01-29T00:44:51;103313.69;;;5.49;71.18
17936;BME280;9093;52.062;4.508;2023-01-29T00:47:37;103306.59;;;5.48;71.27
17936;BME280;9093;52.062;4.508;2023-01-29T00:50:17;103307.47;;;5.47;71.21
17936;BME280;9093;52.062;4.508;2023-01-29T00:52:57;103308.38;;;5.49;71.29
17936;BME280;9093;52.062;4.508;2023-01-29T00:55:38;103306.59;;;5.48;71.00
17936;BME280;9093;52.062;4.508;2023-01-29T00:58:18;103304.81;;;5.47;71.00
17936;BME280;9093;52.062;4.508;2023-01-29T01:01:01;103296.00;;;5.48;71.05
17936;BME280;9093;52.062;4.508;2023-01-29T01:03:41;103296.00;;;5.48;71.02
17936;BME280;9093;52.062;4.508;2023-01-29T01:06:22;103292.44;;;5.46;71.43
17936;BME280;9093;52.062;4.508;2023-01-29T01:09:05;103299.53;;;5.47;71.06
17936;BME280;9093;52.062;4.508;2023-01-29T01:12:04;103303.03;;;5.46;71.42
17936;BME280;9093;52.062;4.508;2023-01-29T01:14:44;103303.03;;;5.46;71.42
17936;BME280;9093;52.062;4.508;2023-01-29T01:17:25;103297.78;;;5.49;71.33
17936;BME280;9093;52.062;4.508;2023-01-29T01:20:06;103305.72;;;5.52;71.11
17936;BME280;9093;52.062;4.508;2023-01-29T01:22:46;103299.53;;;5.50;71.29
17936;BME280;9093;52.062;4.508;2023-01-29T01:25:27;103312.75;;;5.46;71.17
17936;BME280;9093;52.062;4.508;2023-01-29T01:28:10;103315.41;;;5.47;71.22
17936;BME280;9093;52.062;4.508;2023-01-29T01:30:50;103311.03;;;5.49;71.36
17936;BME280;9093;52.062;4.508;2023-01-29T01:33:31;103318.97;;;5.49;71.16
17936;BME280;9093;52.062;4.508;2023-01-29T01:36:11;103311.91;;;5.48;71.08
17936;BME280;9093;52.062;4.508;2023-01-29T01:38:53;103316.31;;;5.49;71.34
17936;BME280;9093;52.062;4.508;2023-01-29T01:41:33;103310.13;;;5.50;71.24
17936;BME280;9093;52.062;4.508;2023-01-29T01:50:43;103313.66;;;5.46;71.15
17936;BME280;9093;52.062;4.508;2023-01-29T01:53:30;103311.91;;;5.48;71.19
17936;BME280;9093;52.062;4.508;2023-01-29T01:56:19;103310.09;;;5.41;71.20
17936;BME280;9093;52.062;4.508;2023-01-29T01:59:00;103307.44;;;5.44;71.20
17936;BME280;9093;52.062;4.508;2023-01-29T02:01:43;103311.00;;;5.43;71.20
17936;BME280;9093;52.062;4.508;2023-01-29T02:04:29;103311.88;;;5.45;71.03
17936;BME280;9093;52.062;4.508;2023-01-29T02:07:27;103300.38;;;5.45;71.21
17936;BME280;9093;52.062;4.508;2023-01-29T02:10:28;103292.44;;;5.46;71.41
17936;BME280;9093;52.062;4.508;2023-01-29T02:13:11;103302.16;;;5.47;71.36
17936;BME280;9093;52.062;4.508;2023-01-29T02:15:55;103296.88;;;5.47;71.39
17936;BME280;9093;52.062;4.508;2023-01-29T02:18:35;103289.81;;;5.48;71.21
17936;BME280;9093;52.062;4.508;2023-01-29T02:21:51;103297.75;;;5.46;71.44
17936;BME280;9093;52.062;4.508;2023-01-29T02:24:49;103297.75;;;5.48;71.15
17936;BME280;9093;52.062;4.508;2023-01-29T02:33:48;103301.31;;;5.48;71.44
17936;BME280;9093;52.062;4.508;2023-01-29T02:36:44;103303.06;;;5.49;71.20
17936;BME280;9093;52.062;4.508;2023-01-29T02:42:26;103315.41;;;5.50;71.46
17936;BME280;9093;52.062;4.508;2023-01-29T02:45:42;103306.59;;;5.51;71.23
17936;BME280;9093;52.062;4.508;2023-01-29T02:48:22;103308.38;;;5.52;71.23
17936;BME280;9093;52.062;4.508;2023-01-29T02:51:09;103301.31;;;5.51;71.23
17936;BME280;9093;52.062;4.508;2023-01-29T02:54:02;103293.34;;;5.51;71.39
17936;BME280;9093;52.062;4.508;2023-01-29T02:56:50;103299.53;;;5.50;71.52
17936;BME280;9093;52.062;4.508;2023-01-29T02:59:38;103302.19;;;5.49;71.32
17936;BME280;9093;52.062;4.508;2023-01-29T03:02:27;103291.56;;;5.47;71.25
17936;BME280;9093;52.062;4.508;2023-01-29T03:05:12;103290.69;;;5.48;71.56
17936;BME280;9093;52.062;4.508;2023-01-29T03:07:58;103286.28;;;5.50;71.48
17936;BME280;9093;52.062;4.508;2023-01-29T03:10:48;103283.63;;;5.50;71.28
17936;BME280;9093;52.062;4.508;2023-01-29T03:16:48;103280.13;;;5.50;71.24
17936;BME280;9093;52.062;4.508;2023-01-29T03:19:33;103280.09;;;5.48;71.17
17936;BME280;9093;52.062;4.508;2023-01-29T03:22:16;103278.31;;;5.47;71.26
17936;BME280;9093;52.062;4.508;2023-01-29T03:25:00;103276.56;;;5.49;71.40
17936;BME280;9093;52.062;4.508;2023-01-29T03:28:02;103273.03;;;5.50;71.61
17936;BME280;9093;52.062;4.508;2023-01-29T03:31:07;103266.88;;;5.50;71.21
17936;BME280;9093;52.062;4.508;2023-01-29T03:34:11;103259.78;;;5.52;71.13
17936;BME280;9093;52.062;4.508;2023-01-29T03:37:02;103260.69;;;5.52;71.41
17936;BME280;9093;52.062;4.508;2023-01-29T03:39:44;103263.31;;;5.52;71.29
17936;BME280;9093;52.062;4.508;2023-01-29T03:43:03;103264.19;;;5.51;71.55
17936;BME280;9093;52.062;4.508;2023-01-29T03:51:32;103255.38;;;5.51;71.28
17936;BME280;9093;52.062;4.508;2023-01-29T03:54:22;103250.06;;;5.51;71.34
17936;BME280;9093;52.062;4.508;2023-01-29T03:57:12;103252.72;;;5.52;71.34
17936;BME280;9093;52.062;4.508;2023-01-29T04:00:10;103246.53;;;5.52;71.37
17936;BME280;9093;52.062;4.508;2023-01-29T04:03:21;103240.34;;;5.51;71.52
17936;BME280;9093;52.062;4.508;2023-01-29T04:06:16;103236.84;;;5.52;71.62
17936;BME280;9093;52.062;4.508;2023-01-29T04:09:15;103235.06;;;5.51;71.60
17936;BME280;9093;52.062;4.508;2023-01-29T04:12:04;103243.91;;;5.53;71.27
17936;BME280;9093;52.062;4.508;2023-01-29T04:14:49;103241.25;;;5.53;71.66
17936;BME280;9093;52.062;4.508;2023-01-29T04:17:37;103244.78;;;5.49;71.52
17936;BME280;9093;52.062;4.508;2023-01-29T04:20:19;103221.81;;;5.48;71.47
17936;BME280;9093;52.062;4.508;2023-01-29T04:23:00;103239.47;;;5.49;71.68
17936;BME280;9093;52.062;4.508;2023-01-29T04:25:45;103223.59;;;5.49;71.68
17936;BME280;9093;52.062;4.508;2023-01-29T04:28:49;103232.41;;;5.48;71.43
17936;BME280;9093;52.062;4.508;2023-01-29T04:31:38;103221.81;;;5.51;71.33
17936;BME280;9093;52.062;4.508;2023-01-29T04:34:27;103226.22;;;5.51;71.45
17936;BME280;9093;52.062;4.508;2023-01-29T04:37:35;103219.16;;;5.51;71.42
17936;BME280;9093;52.062;4.508;2023-01-29T04:40:38;103198.84;;;5.47;71.47
17936;BME280;9093;52.062;4.508;2023-01-29T04:43:39;103200.59;;;5.48;71.49
17936;BME280;9093;52.062;4.508;2023-01-29T04:52:12;103205.00;;;5.45;71.50
17936;BME280;9093;52.062;4.508;2023-01-29T04:58:25;103197.94;;;5.45;71.62
17936;BME280;9093;52.062;4.508;2023-01-29T05:01:13;103198.84;;;5.47;71.77
17936;BME280;9093;52.062;4.508;2023-01-29T05:03:57;103198.84;;;5.47;71.50
17936;BME280;9093;52.062;4.508;2023-01-29T05:06:39;103188.22;;;5.47;71.50
17936;BME280;9093;52.062;4.508;2023-01-29T05:09:21;103191.78;;;5.48;71.82
17936;BME280;9093;52.062;4.508;2023-01-29T05:12:05;103185.59;;;5.49;71.83
17936;BME280;9093;52.062;4.508;2023-01-29T05:14:46;103179.41;;;5.48;71.69
17936;BME280;9093;52.062;4.508;2023-01-29T05:17:28;103185.59;;;5.47;71.49
17936;BME280;9093;52.062;4.508;2023-01-29T05:20:10;103179.41;;;5.48;71.74
17936;BME280;9093;52.062;4.508;2023-01-29T05:22:51;103177.66;;;5.49;71.44
17936;BME280;9093;52.062;4.508;2023-01-29T05:25:32;103179.41;;;5.51;71.82
17936;BME280;9093;52.062;4.508;2023-01-29T05:28:13;103173.25;;;5.49;71.74
17936;BME280;9093;52.062;4.508;2023-01-29T05:30:55;103164.41;;;5.49;71.61
17936;BME280;9093;52.062;4.508;2023-01-29T05:33:36;103157.31;;;5.51;71.47
17936;BME280;9093;52.062;4.508;2023-01-29T05:36:16;103152.91;;;5.51;71.71
17936;BME280;9093;52.062;4.508;2023-01-29T05:38:57;103154.69;;;5.52;71.44
17936;BME280;9093;52.062;4.508;2023-01-29T05:41:37;103158.22;;;5.54;71.66
17936;BME280;9093;52.062;4.508;2023-01-29T05:44:17;103151.16;;;5.53;71.51
17936;BME280;9093;52.062;4.508;2023-01-29T05:46:58;103156.47;;;5.53;71.69
17936;BME280;9093;52.062;4.508;2023-01-29T05:49:38;103158.22;;;5.51;71.63
17936;BME280;9093;52.062;4.508;2023-01-29T05:52:18;103162.63;;;5.51;71.78
17936;BME280;9093;52.062;4.508;2023-01-29T05:54:59;103165.28;;;5.52;71.58
17936;BME280;9093;52.062;4.508;2023-01-29T05:57:40;103164.41;;;5.52;71.49
17936;BME280;9093;52.062;4.508;2023-01-29T06:00:20;103167.06;;;5.53;71.72
17936;BME280;9093;52.062;4.508;2023-01-29T06:03:01;103171.47;;;5.54;71.63
17936;BME280;9093;52.062;4.508;2023-01-29T06:05:41;103158.22;;;5.54;71.65
17936;BME280;9093;52.062;4.508;2023-01-29T06:08:21;103155.59;;;5.54;71.45
17936;BME280;9093;52.062;4.508;2023-01-29T06:11:02;103157.34;;;5.55;71.56
17936;BME280;9093;52.062;4.508;2023-01-29T06:13:43;103149.41;;;5.55;71.66
17936;BME280;9093;52.062;4.508;2023-01-29T06:16:23;103149.41;;;5.55;71.64
17936;BME280;9093;52.062;4.508;2023-01-29T06:19:04;103147.63;;;5.57;71.64
17936;BME280;9093;52.062;4.508;2023-01-29T06:21:44;103145.84;;;5.56;71.61
17936;BME280;9093;52.062;4.508;2023-01-29T06:24:24;103137.03;;;5.57;71.73
17936;BME280;9093;52.062;4.508;2023-01-29T06:27:05;103139.69;;;5.57;71.38
17936;BME280;9093;52.062;4.508;2023-01-29T06:29:45;103128.22;;;5.55;71.38
17936;BME280;9093;52.062;4.508;2023-01-29T06:32:26;103133.50;;;5.58;71.69
17936;BME280;9093;52.062;4.508;2023-01-29T06:35:07;103130.84;;;5.57;71.68
17936;BME280;9093;52.062;4.508;2023-01-29T06:37:49;103122.00;;;5.56;71.40
17936;BME280;9093;52.062;4.508;2023-01-29T06:40:29;103132.59;;;5.56;71.67
17936;BME280;9093;52.062;4.508;2023-01-29T06:43:09;103133.50;;;5.57;71.57
17936;BME280;9093;52.062;4.508;2023-01-29T06:45:55;103130.84;;;5.57;71.61
17936;BME280;9093;52.062;4.508;2023-01-29T06:48:35;103122.91;;;5.58;71.30
17936;BME280;9093;52.062;4.508;2023-01-29T06:51:16;103118.50;;;5.59;71.46
17936;BME280;9093;52.062;4.508;2023-01-29T06:53:56;103118.50;;;5.60;71.43
17936;BME280;9093;52.062;4.508;2023-01-29T06:56:36;103124.69;;;5.62;71.42
17936;BME280;9093;52.062;4.508;2023-01-29T06:59:17;103122.03;;;5.61;71.30
17936;BME280;9093;52.062;4.508;2023-01-29T07:01:57;103123.81;;;5.60;71.41
17936;BME280;9093;52.062;4.508;2023-01-29T07:04:38;103122.06;;;5.62;71.44
17936;BME280;9093;52.062;4.508;2023-01-29T07:07:18;103130.00;;;5.62;71.67
17936;BME280;9093;52.062;4.508;2023-01-29T07:09:58;103120.28;;;5.64;71.39
17936;BME280;9093;52.062;4.508;2023-01-29T07:12:39;103128.22;;;5.61;71.35
17936;BME280;9093;52.062;4.508;2023-01-29T07:15:20;103127.34;;;5.62;71.66
17936;BME280;9093;52.062;4.508;2023-01-29T07:18:02;103126.44;;;5.63;71.24
17936;BME280;9093;52.062;4.508;2023-01-29T07:20:51;103129.09;;;5.63;71.40
17936;BME280;9093;52.062;4.508;2023-01-29T07:23:32;103127.34;;;5.64;71.26
17936;BME280;9093;52.062;4.508;2023-01-29T07:26:12;103129.09;;;5.65;71.55
17936;BME280;9093;52.062;4.508;2023-01-29T07:28:53;103133.53;;;5.64;71.58
17936;BME280;9093;52.062;4.508;2023-01-29T07:31:33;103137.97;;;5.67;71.27
17936;BME280;9093;52.062;4.508;2023-01-29T07:34:14;103133.53;;;5.68;71.65
17936;BME280;9093;52.062;4.508;2023-01-29T07:36:54;103128.25;;;5.68;71.28
17936;BME280;9093;52.062;4.508;2023-01-29T07:39:35;103133.53;;;5.68;71.41
17936;BME280;9093;52.062;4.508;2023-01-29T07:42:16;103125.56;;;5.69;71.44
17936;BME280;9093;52.062;4.508;2023-01-29T07:44:56;103122.94;;;5.68;71.53
17936;BME280;9093;52.062;4.508;2023-01-29T07:47:37;103115.88;;;5.66;71.50
17936;BME280;9093;52.062;4.508;2023-01-29T07:50:21;103115.84;;;5.70;71.28
17936;BME280;9093;52.062;4.508;2023-01-29T07:53:01;103116.75;;;5.70;71.63
17936;BME280;9093;52.062;4.508;2023-01-29T07:55:43;103120.28;;;5.72;71.29
17936;BME280;9093;52.062;4.508;2023-01-29T07:58:24;103115.00;;;5.72;71.53
17936;BME280;9093;52.062;4.508;2023-01-29T08:01:05;103107.94;;;5.73;71.17
17936;BME280;9093;52.062;4.508;2023-01-29T08:03:46;103104.38;;;5.72;71.61
17936;BME280;9093;52.062;4.508;2023-01-29T08:06:27;103113.25;;;5.74;71.29
17936;BME280;9093;52.062;4.508;2023-01-29T08:09:07;103103.50;;;5.76;71.21
17936;BME280;9093;52.062;4.508;2023-01-29T08:11:50;103117.63;;;5.71;71.70
17936;BME280;9093;52.062;4.508;2023-01-29T08:14:30;103114.13;;;5.73;71.36
17936;BME280;9093;52.062;4.508;2023-01-29T08:17:11;103109.69;;;5.74;71.62
17936;BME280;9093;52.062;4.508;2023-01-29T08:19:52;103092.91;;;5.76;71.49
17936;BME280;9093;52.062;4.508;2023-01-29T08:22:32;103089.38;;;5.76;71.39
17936;BME280;9093;52.062;4.508;2023-01-29T08:25:13;103082.31;;;5.78;71.42
17936;BME280;9093;52.062;4.508;2023-01-29T08:27:55;103081.44;;;5.80;71.54
17936;BME280;9093;52.062;4.508;2023-01-29T08:30:36;103087.63;;;5.81;71.43
17936;BME280;9093;52.062;4.508;2023-01-29T08:33:17;103084.97;;;5.82;71.56
17936;BME280;9093;52.062;4.508;2023-01-29T08:35:57;103077.00;;;5.84;71.62
17936;BME280;9093;52.062;4.508;2023-01-29T08:38:38;103075.28;;;5.89;71.39
17936;BME280;9093;52.062;4.508;2023-01-29T08:41:18;103074.41;;;5.91;71.46
17936;BME280;9093;52.062;4.508;2023-01-29T08:43:59;103071.75;;;5.96;71.32
17936;BME280;9093;52.062;4.508;2023-01-29T08:46:41;103066.47;;;5.99;71.40
17936;BME280;9093;52.062;4.508;2023-01-29T08:49:21;103067.34;;;6.01;71.45
17936;BME280;9093;52.062;4.508;2023-01-29T08:52:01;103069.13;;;6.00;71.18
17936;BME280;9093;52.062;4.508;2023-01-29T08:54:42;103077.06;;;6.02;71.22
17936;BME280;9093;52.062;4.508;2023-01-29T08:57:22;103071.78;;;6.05;71.38
17936;BME280;9093;52.062;4.508;2023-01-29T09:00:04;103059.38;;;6.09;71.42
17936;BME280;9093;52.062;4.508;2023-01-29T09:02:45;103059.38;;;6.10;71.50
17936;BME280;9093;52.062;4.508;2023-01-29T09:05:26;103059.41;;;6.13;71.46
17936;BME280;9093;52.062;4.508;2023-01-29T09:08:08;103057.63;;;6.12;71.34
17936;BME280;9093;52.062;4.508;2023-01-29T09:10:48;103061.16;;;6.19;71.29
17936;BME280;9093;52.062;4.508;2023-01-29T09:13:29;103067.34;;;6.22;71.28
17936;BME280;9093;52.062;4.508;2023-01-29T09:16:09;103061.16;;;6.25;71.16
17936;BME280;9093;52.062;4.508;2023-01-29T09:18:49;103068.22;;;6.27;71.35
17936;BME280;9093;52.062;4.508;2023-01-29T09:21:29;103071.78;;;6.29;71.34
17936;BME280;9093;52.062;4.508;2023-01-29T09:24:10;103054.06;;;6.34;71.35
17936;BME280;9093;52.062;4.508;2023-01-29T09:26:50;103054.94;;;6.35;71.24
17936;BME280;9093;52.062;4.508;2023-01-29T09:29:30;103047.00;;;6.36;71.38
17936;BME280;9093;52.062;4.508;2023-01-29T09:32:11;103050.53;;;6.38;71.21
17936;BME280;9093;52.062;4.508;2023-01-29T09:34:51;103053.19;;;6.38;71.34
17936;BME280;9093;52.062;4.508;2023-01-29T09:37:31;103045.22;;;6.40;71.49
17936;BME280;9093;52.062;4.508;2023-01-29T09:40:25;103051.41;;;6.40;71.51
17936;BME280;9093;52.062;4.508;2023-01-29T09:46:00;103050.53;;;6.41;71.29
17936;BME280;9093;52.062;4.508;2023-01-29T09:48:44;103053.19;;;6.41;71.32
17936;BME280;9093;52.062;4.508;2023-01-29T09:51:36;103052.28;;;6.42;71.23
17936;BME280;9093;52.062;4.508;2023-01-29T09:54:29;103041.66;;;6.39;71.33
17936;BME280;9093;52.062;4.508;2023-01-29T09:57:18;103043.44;;;6.40;71.35
17936;BME280;9093;52.062;4.508;2023-01-29T10:00:01;103040.78;;;6.40;71.44
17936;BME280;9093;52.062;4.508;2023-01-29T10:02:58;103039.91;;;6.41;71.21
17936;BME280;9093;52.062;4.508;2023-01-29T10:05:54;103039.91;;;6.47;71.24
17936;BME280;9093;52.062;4.508;2023-01-29T10:12:06;103037.25;;;6.44;71.54
17936;BME280;9093;52.062;4.508;2023-01-29T10:15:18;103034.59;;;6.47;71.36
17936;BME280;9093;52.062;4.508;2023-01-29T10:21:36;103036.38;;;6.49;71.21
17936;BME280;9093;52.062;4.508;2023-01-29T10:27:17;103034.59;;;6.47;71.36
17936;BME280;9093;52.062;4.508;2023-01-29T10:30:01;103021.31;;;6.49;71.27
17936;BME280;9093;52.062;4.508;2023-01-29T10:32:44;103023.09;;;6.49;71.39
17936;BME280;9093;52.062;4.508;2023-01-29T10:35:30;103020.44;;;6.45;71.69
17936;BME280;9093;52.062;4.508;2023-01-29T10:41:41;103016.91;;;6.46;71.62
17936;BME280;9093;52.062;4.508;2023-01-29T10:47:34;102994.78;;;6.49;71.35
17936;BME280;9093;52.062;4.508;2023-01-29T10:50:40;102994.78;;;6.46;71.29
17936;BME280;9093;52.062;4.508;2023-01-29T10:53:27;102989.47;;;6.46;71.36
17936;BME280;9093;52.062;4.508;2023-01-29T10:56:43;102981.53;;;6.44;71.51
17936;BME280;9093;52.062;4.508;2023-01-29T10:59:38;102977.97;;;6.49;71.45
17936;BME280;9093;52.062;4.508;2023-01-29T11:02:23;102977.94;;;6.52;71.26
17936;BME280;9093;52.062;4.508;2023-01-29T11:08:18;102964.69;;;6.55;71.43
17936;BME280;9093;52.062;4.508;2023-01-29T11:11:17;102970.88;;;6.57;71.56
17936;BME280;9093;52.062;4.508;2023-01-29T11:14:03;102971.75;;;6.62;71.37
17936;BME280;9093;52.062;4.508;2023-01-29T11:16:47;102963.75;;;6.65;71.64
17936;BME280;9093;52.062;4.508;2023-01-29T11:19:39;102962.84;;;6.70;71.30
17936;BME280;9093;52.062;4.508;2023-01-29T11:22:27;102970.81;;;6.72;71.31
17936;BME280;9093;52.062;4.508;2023-01-29T11:25:20;102963.75;;;6.68;71.61
17936;BME280;9093;52.062;4.508;2023-01-29T11:28:01;102962.88;;;6.64;71.68
17936;BME280;9093;52.062;4.508;2023-01-29T11:30:44;102954.91;;;6.66;71.68
17936;BME280;9093;52.062;4.508;2023-01-29T11:33:24;102951.38;;;6.67;71.46
17936;BME280;9093;52.062;4.508;2023-01-29T11:36:25;102943.44;;;6.64;71.55
17936;BME280;9093;52.062;4.508;2023-01-29T11:39:20;102940.78;;;6.61;71.46
17936;BME280;9093;52.062;4.508;2023-01-29T11:42:03;102948.75;;;6.64;71.68
17936;BME280;9093;52.062;4.508;2023-01-29T11:44:43;102925.72;;;6.61;71.57
17936;BME280;9093;52.062;4.508;2023-01-29T11:47:31;102936.31;;;6.64;71.44
17936;BME280;9093;52.062;4.508;2023-01-29T11:50:20;102932.78;;;6.65;71.69
17936;BME280;9093;52.062;4.508;2023-01-29T11:53:02;102925.69;;;6.67;71.56
17936;BME280;9093;52.062;4.508;2023-01-29T11:55:45;102921.28;;;6.68;71.35
17936;BME280;9093;52.062;4.508;2023-01-29T11:58:36;102917.75;;;6.66;71.47
17936;BME280;9093;52.062;4.508;2023-01-29T12:01:31;102914.19;;;6.67;71.57
17936;BME280;9093;52.062;4.508;2023-01-29T12:04:23;102907.13;;;6.66;71.50
17936;BME280;9093;52.062;4.508;2023-01-29T12:07:10;102897.38;;;6.66;71.63
17936;BME280;9093;52.062;4.508;2023-01-29T12:09:55;102889.38;;;6.71;71.59
17936;BME280;9093;52.062;4.508;2023-01-29T12:12:45;102882.34;;;6.70;71.60
17936;BME280;9093;52.062;4.508;2023-01-29T12:15:25;102877.00;;;6.73;71.46
17936;BME280;9093;52.062;4.508;2023-01-29T12:18:29;102873.47;;;6.74;71.53
17936;BME280;9093;52.062;4.508;2023-01-29T12:22:02;102866.34;;;6.80;71.58
17936;BME280;9093;52.062;4.508;2023-01-29T12:24:51;102848.59;;;6.89;71.54
17936;BME280;9093;52.062;4.508;2023-01-29T12:27:37;102855.59;;;6.97;71.63
17936;BME280;9093;52.062;4.508;2023-01-29T12:33:29;102827.22;;;7.02;71.50
17936;BME280;9093;52.062;4.508;2023-01-29T12:36:25;102831.66;;;7.06;71.39
17936;BME280;9093;52.062;4.508;2023-01-29T12:39:10;102824.50;;;7.13;71.43
17936;BME280;9093;52.062;4.508;2023-01-29T12:42:01;102831.56;;;7.15;71.65
17936;BME280;9093;52.062;4.508;2023-01-29T12:44:47;102820.97;;;7.14;71.50
17936;BME280;9093;52.062;4.508;2023-01-29T12:47:37;102819.19;;;7.14;71.26
17936;BME280;9093;52.062;4.508;2023-01-29T12:57:09;102822.81;;;7.03;71.40
17936;BME280;9093;52.062;4.508;2023-01-29T12:59:25;102777.69;;;7.01;71.66
17936;BME280;9093;52.062;4.508;2023-01-29T13:02:17;102780.28;;;7.04;71.39
17936;BME280;9093;52.062;4.508;2023-01-29T13:07:57;102760.78;;;7.08;71.16
17936;BME280;9093;52.062;4.508;2023-01-29T13:10:43;102752.78;;;7.11;71.27
17936;BME280;9093;52.062;4.508;2023-01-29T13:16:13;102731.53;;;7.11;71.60
17936;BME280;9093;52.062;4.508;2023-01-29T13:18:58;102726.22;;;7.14;71.46
17936;BME280;9093;52.062;4.508;2023-01-29T13:21:42;102722.63;;;7.17;71.23
17936;BME280;9093;52.062;4.508;2023-01-29T13:24:24;102706.69;;;7.18;71.26
17936;BME280;9093;52.062;4.508;2023-01-29T13:27:06;102714.66;;;7.15;71.50
17936;BME280;9093;52.062;4.508;2023-01-29T13:29:55;102711.94;;;7.21;71.39
17936;BME280;9093;52.062;4.508;2023-01-29T13:32:36;102706.63;;;7.24;71.31
17936;BME280;9093;52.062;4.508;2023-01-29T13:35:19;102710.16;;;7.26;71.31
17936;BME280;9093;52.062;4.508;2023-01-29T13:38:01;102703.09;;;7.22;71.37
17936;BME280;9093;52.062;4.508;2023-01-29T13:40:47;102707.50;;;7.23;71.26
17936;BME280;9093;52.062;4.508;2023-01-29T13:43:34;102707.56;;;7.19;71.38
17936;BME280;9093;52.062;4.508;2023-01-29T13:46:17;102703.16;;;7.16;71.30
17936;BME280;9093;52.062;4.508;2023-01-29T13:49:00;102692.56;;;7.13;71.25
17936;BME280;9093;52.062;4.508;2023-01-29T13:51:43;102696.13;;;7.12;71.31
17936;BME280;9093;52.062;4.508;2023-01-29T13:54:25;102697.88;;;7.13;71.24
17936;BME280;9093;52.062;4.508;2023-01-29T13:58:05;102687.28;;;7.10;71.34
17936;BME280;9093;52.062;4.508;2023-01-29T14:05:56;102676.63;;;7.13;71.33
17936;BME280;9093;52.062;4.508;2023-01-29T14:08:43;102675.75;;;7.14;71.02
17936;BME280;9093;52.062;4.508;2023-01-29T14:11:33;102669.53;;;7.14;71.17
17936;BME280;9093;52.062;4.508;2023-01-29T14:17:28;102653.53;;;7.18;71.20
17936;BME280;9093;52.062;4.508;2023-01-29T14:20:18;102653.53;;;7.18;71.12
17936;BME280;9093;52.062;4.508;2023-01-29T14:23:00;102651.78;;;7.17;71.23
17936;BME280;9093;52.062;4.508;2023-01-29T14:25:44;102655.31;;;7.18;71.07
17936;BME280;9093;52.062;4.508;2023-01-29T14:28:28;102642.06;;;7.16;71.31
17936;BME280;9093;52.062;4.508;2023-01-29T14:31:09;102667.78;;;7.11;71.01
17936;BME280;9093;52.062;4.508;2023-01-29T14:33:51;102642.16;;;7.07;71.36
17936;BME280;9093;52.062;4.508;2023-01-29T14:36:38;102651.94;;;7.02;71.39
17936;BME280;9093;52.062;4.508;2023-01-29T14:39:43;102637.81;;;7.00;71.23
17936;BME280;9093;52.062;4.508;2023-01-29T14:42:30;102644.91;;;6.98;71.33
17936;BME280;9093;52.062;4.508;2023-01-29T14:50:44;102632.56;;;6.94;71.41
17936;BME280;9093;52.062;4.508;2023-01-29T14:53:52;102637.00;;;6.91;71.13
17936;BME280;9093;52.062;4.508;2023-01-29T14:56:34;102621.97;;;6.91;71.35
17936;BME280;9093;52.062;4.508;2023-01-29T14:59:34;102626.38;;;6.91;71.28
17936;BME280;9093;52.062;4.508;2023-01-29T15:02:20;102627.31;;;6.88;71.35
17936;BME280;9093;52.062;4.508;2023-01-29T15:05:05;102612.28;;;6.87;71.21
17936;BME280;9093;52.062;4.508;2023-01-29T15:08:03;102620.25;;;6.84;71.43
17936;BME280;9093;52.062;4.508;2023-01-29T15:10:53;102618.53;;;6.80;71.58
17936;BME280;9093;52.062;4.508;2023-01-29T15:14:04;102629.19;;;6.77;71.40
17936;BME280;9093;52.062;4.508;2023-01-29T15:19:52;102615.13;;;6.69;71.35
17936;BME280;9093;52.062;4.508;2023-01-29T15:22:41;102611.63;;;6.64;71.54
17936;BME280;9093;52.062;4.508;2023-01-29T15:25:22;102606.34;;;6.62;71.59
17936;BME280;9093;52.062;4.508;2023-01-29T15:28:03;102603.69;;;6.61;71.75
17936;BME280;9093;52.062;4.508;2023-01-29T15:30:53;102603.69;;;6.59;71.73
17936;BME280;9093;52.062;4.508;2023-01-29T15:33:40;102603.69;;;6.58;71.82
17936;BME280;9093;52.062;4.508;2023-01-29T15:36:23;102601.03;;;6.58;71.81
17936;BME280;9093;52.062;4.508;2023-01-29T15:42:03;102595.78;;;6.52;72.10
17936;BME280;9093;52.062;4.508;2023-01-29T15:44:51;102593.13;;;6.55;71.77
17936;BME280;9093;52.062;4.508;2023-01-29T15:47:34;102608.19;;;6.53;72.14
17936;BME280;9093;52.062;4.508;2023-01-29T15:50:14;102594.06;;;6.51;72.15
17936;BME280;9093;52.062;4.508;2023-01-29T15:52:57;102588.75;;;6.51;72.11
17936;BME280;9093;52.062;4.508;2023-01-29T15:55:39;102592.28;;;6.50;72.15
17936;BME280;9093;52.062;4.508;2023-01-29T15:58:28;102593.19;;;6.47;72.11
17936;BME280;9093;52.062;4.508;2023-01-29T16:01:09;102597.59;;;6.50;72.11
17936;BME280;9093;52.062;4.508;2023-01-29T16:03:51;102597.63;;;6.46;72.48
17936;BME280;9093;52.062;4.508;2023-01-29T16:06:37;102599.44;;;6.44;72.29
17936;BME280;9093;52.062;4.508;2023-01-29T16:09:21;102600.28;;;6.45;72.38
17936;BME280;9093;52.062;4.508;2023-01-29T16:12:05;102588.81;;;6.44;72.37
17936;BME280;9093;52.062;4.508;2023-01-29T16:14:47;102587.03;;;6.43;72.44
17936;BME280;9093;52.062;4.508;2023-01-29T16:17:32;102587.03;;;6.43;72.33
17936;BME280;9093;52.062;4.508;2023-01-29T16:20:29;102602.09;;;6.43;72.46